Time;durP1;ratioP1;P1;durP2;ratioP2;P2;SDS_P1;SDS_P2;PMS_P1;PMS_P2;Temp;Humidity;BMP_temperature;BMP_pressure;BME280_temperature;BME280_humidity;BME280_pressure;Samples;Min_cycle;Max_cycle;Signal;HPM_P1;HPM_P2
2023/10/10 00:01:17;;;;;;;1.20;1.20;;;18.30;99.90;;;;;;5011516;28;20029;-82
2023/10/10 00:03:45;;;;;;;1.23;1.08;;;18.30;99.90;;;;;;5003279;28;20125;-82
2023/10/10 00:06:13;;;;;;;1.63;1.52;;;18.30;99.90;;;;;;5010436;28;20122;-82
2023/10/10 00:08:40;;;;;;;1.88;1.55;;;18.20;99.90;;;;;;4998215;28;20435;-82
2023/10/10 00:11:14;;;;;;;1.40;1.35;;;18.20;99.90;;;;;;4992778;28;20037;-82
2023/10/10 00:13:43;;;;;;;1.52;1.42;;;18.10;99.90;;;;;;5002522;28;20414;-82
2023/10/10 00:16:31;;;;;;;1.80;1.40;;;18.10;99.90;;;;;;5014870;28;20014;-82
2023/10/10 00:18:58;;;;;;;1.55;0.82;;;18.00;99.90;;;;;;5003321;28;20507;-83
2023/10/10 00:21:24;;;;;;;1.50;1.40;;;18.00;99.90;;;;;;5001437;28;20021;-82
2023/10/10 00:23:53;;;;;;;1.48;1.08;;;18.00;99.90;;;;;;4995355;28;20474;-82
2023/10/10 00:26:20;;;;;;;1.50;1.40;;;18.00;99.90;;;;;;4997446;28;20039;-82
2023/10/10 00:28:57;;;;;;;1.25;1.15;;;18.00;99.90;;;;;;5011003;28;20060;-82
2023/10/10 00:31:28;;;;;;;1.27;1.17;;;18.10;99.90;;;;;;5009688;28;20030;-82
2023/10/10 00:33:55;;;;;;;1.10;1.10;;;18.00;99.90;;;;;;4997644;28;20061;-82
2023/10/10 00:36:22;;;;;;;2.17;1.83;;;18.00;99.90;;;;;;5011125;28;20123;-82
2023/10/10 00:39:22;;;;;;;1.65;1.55;;;17.90;99.90;;;;;;5013989;28;20485;-82
2023/10/10 00:44:16;;;;;;;2.78;1.98;;;17.90;99.90;;;;;;5010604;28;20042;-82
2023/10/10 00:46:42;;;;;;;4.18;1.85;;;18.00;99.90;;;;;;4994086;28;20037;-82
2023/10/10 00:49:13;;;;;;;2.63;1.60;;;17.90;99.90;;;;;;5014929;28;20026;-82
2023/10/10 00:51:46;;;;;;;1.63;1.58;;;17.80;99.90;;;;;;4996945;28;20036;-82
2023/10/10 00:57:00;;;;;;;2.88;1.88;;;17.80;99.90;;;;;;5016790;28;20045;-82
2023/10/10 00:59:35;;;;;;;2.00;1.58;;;17.80;99.90;;;;;;4999915;28;20057;-82
2023/10/10 01:02:04;;;;;;;1.25;1.15;;;17.90;99.90;;;;;;5012066;28;20025;-81
2023/10/10 01:04:49;;;;;;;2.15;1.80;;;17.90;99.90;;;;;;5008277;28;20444;-81
2023/10/10 01:07:18;;;;;;;12.43;1.65;;;17.80;99.90;;;;;;5010488;28;20544;-82
2023/10/10 01:09:55;;;;;;;1.92;1.83;;;17.70;99.90;;;;;;5012758;28;20025;-81
2023/10/10 01:12:22;;;;;;;2.85;1.50;;;17.70;99.90;;;;;;5020800;28;20042;-82
2023/10/10 01:15:00;;;;;;;2.55;2.35;;;17.70;99.90;;;;;;5011019;28;20040;-82
2023/10/10 01:17:29;;;;;;;2.08;1.75;;;17.50;99.90;;;;;;5011678;28;20032;-81
2023/10/10 01:20:17;;;;;;;0.80;0.80;;;17.50;99.90;;;;;;5010754;28;20036;-82
2023/10/10 01:22:49;;;;;;;1.25;1.15;;;17.40;99.90;;;;;;5001493;28;20025;-81
2023/10/10 01:25:52;;;;;;;2.50;2.30;;;17.40;99.90;;;;;;4996489;28;20032;-82
2023/10/10 01:28:15;;;;;;;1.70;1.30;;;17.30;99.90;;;;;;5009001;28;20042;-81
2023/10/10 01:30:44;;;;;;;1.98;1.80;;;17.20;99.90;;;;;;5009407;28;20037;-82
2023/10/10 01:33:24;;;;;;;1.35;1.35;;;17.10;99.90;;;;;;5015986;28;20025;-82
2023/10/10 01:35:52;;;;;;;0.98;0.90;;;17.00;99.90;;;;;;5011769;28;20442;-82
2023/10/10 01:38:33;;;;;;;1.75;1.65;;;17.10;99.90;;;;;;5009753;28;20024;-82
2023/10/10 01:41:04;;;;;;;2.42;2.13;;;17.10;99.90;;;;;;5012126;28;20034;-82
2023/10/10 01:43:32;;;;;;;2.42;2.08;;;17.20;99.90;;;;;;5012274;28;20032;-81
2023/10/10 01:46:19;;;;;;;0.75;0.75;;;17.20;99.90;;;;;;5012289;28;20092;-82
2023/10/10 01:48:45;;;;;;;1.33;1.23;;;17.20;99.90;;;;;;5015285;28;20031;-82
2023/10/10 01:51:15;;;;;;;1.95;1.85;;;17.10;99.90;;;;;;5011563;28;20029;-82
2023/10/10 01:53:41;;;;;;;1.75;1.67;;;17.10;99.90;;;;;;5000114;28;20030;-82
2023/10/10 01:56:07;;;;;;;1.80;1.08;;;17.00;99.90;;;;;;5002014;28;20549;-82
2023/10/10 01:58:37;;;;;;;1.45;1.45;;;16.80;99.90;;;;;;5017094;28;20024;-81
2023/10/10 02:01:14;;;;;;;2.08;1.73;;;16.90;99.90;;;;;;5015072;28;20018;-82
2023/10/10 02:03:40;;;;;;;1.55;1.52;;;16.90;99.90;;;;;;5024050;28;20021;-82
2023/10/10 02:06:13;;;;;;;1.20;1.10;;;16.90;99.90;;;;;;5012857;28;20405;-82
2023/10/10 02:08:43;;;;;;;1.88;1.77;;;16.90;99.90;;;;;;5011205;28;20018;-82
2023/10/10 02:11:12;;;;;;;1.23;1.23;;;17.00;99.90;;;;;;4998647;28;20257;-82
2023/10/10 02:13:39;;;;;;;1.90;1.70;;;17.00;99.90;;;;;;5001274;28;20098;-82
2023/10/10 02:16:11;;;;;;;2.15;1.45;;;17.00;99.90;;;;;;5000304;28;20148;-81
2023/10/10 02:18:44;;;;;;;1.10;1.02;;;17.10;99.90;;;;;;5010356;28;20013;-82
2023/10/10 02:21:15;;;;;;;2.17;2.08;;;17.10;99.90;;;;;;5009087;28;20033;-81
2023/10/10 02:23:44;;;;;;;1.42;1.40;;;17.10;99.90;;;;;;4990287;28;20029;-82
2023/10/10 02:31:45;;;;;;;1.77;1.73;;;16.90;99.90;;;;;;5009280;28;20049;-81
2023/10/10 02:34:11;;;;;;;2.22;2.13;;;16.90;99.90;;;;;;5009899;28;20048;-81
2023/10/10 02:36:40;;;;;;;1.38;1.38;;;16.90;99.90;;;;;;5010641;28;20032;-81
2023/10/10 02:39:26;;;;;;;1.52;0.93;;;16.80;99.90;;;;;;5008059;28;20041;-81
2023/10/10 02:41:59;;;;;;;1.67;1.58;;;16.80;99.90;;;;;;5008732;28;20030;-82
2023/10/10 02:47:02;;;;;;;1.35;1.30;;;16.80;99.90;;;;;;5011551;28;20132;-81
2023/10/10 02:51:57;;;;;;;3.70;1.58;;;16.70;99.90;;;;;;5009771;28;20045;-81
2023/10/10 02:54:54;;;;;;;1.55;1.52;;;16.70;99.90;;;;;;4993205;28;20026;-81
2023/10/10 03:00:15;;;;;;;2.38;2.17;;;16.60;99.90;;;;;;5013271;28;20176;-81
2023/10/10 03:02:49;;;;;;;1.10;1.00;;;16.60;99.90;;;;;;5009967;28;20034;-81
2023/10/10 03:05:20;;;;;;;2.17;2.00;;;16.70;99.90;;;;;;5010095;28;20079;-81
2023/10/10 03:07:51;;;;;;;2.15;1.67;;;16.60;99.90;;;;;;4999817;28;20222;-81
2023/10/10 03:10:35;;;;;;;2.35;2.15;;;16.60;99.90;;;;;;4997701;28;20037;-81
2023/10/10 03:13:12;;;;;;;1.67;1.60;;;16.60;99.90;;;;;;4998639;28;20083;-81
2023/10/10 03:15:40;;;;;;;1.48;1.38;;;16.60;99.90;;;;;;5000504;28;20021;-81
2023/10/10 03:25:52;;;;;;;1.92;1.80;;;16.60;99.90;;;;;;5012022;28;20033;-81
2023/10/10 03:30:51;;;;;;;2.03;1.88;;;16.60;99.90;;;;;;5011502;28;20601;-81
2023/10/10 03:33:37;;;;;;;1.33;1.27;;;16.60;99.90;;;;;;5015521;28;20025;-81
2023/10/10 05:25:31;;;;;;;2.90;2.80;;;16.10;99.90;;;;;;5010334;28;20035;-83
2023/10/10 05:28:03;;;;;;;4.63;2.70;;;16.10;99.90;;;;;;4996818;28;20037;-82
2023/10/10 05:30:39;;;;;;;2.40;2.30;;;16.00;99.90;;;;;;4990905;28;20029;-82
2023/10/10 05:33:07;;;;;;;2.60;2.40;;;15.90;99.90;;;;;;5012545;28;20022;-82
2023/10/10 05:35:51;;;;;;;4.30;3.28;;;16.00;99.90;;;;;;5000809;28;20037;-82
2023/10/10 05:38:19;;;;;;;3.78;3.47;;;16.00;99.90;;;;;;4997330;28;20057;-82
2023/10/10 05:40:47;;;;;;;2.53;2.13;;;15.90;99.90;;;;;;5011705;28;20768;-81
2023/10/10 05:43:16;;;;;;;2.72;2.33;;;15.90;99.90;;;;;;5010540;28;20501;-82
2023/10/10 05:45:44;;;;;;;2.25;2.15;;;15.80;99.90;;;;;;5011258;28;20034;-82
2023/10/10 05:48:11;;;;;;;2.30;2.20;;;15.80;99.90;;;;;;4994227;28;20433;-82
2023/10/10 05:50:37;;;;;;;2.10;2.00;;;15.90;99.90;;;;;;5003289;28;20034;-81
2023/10/10 05:53:06;;;;;;;4.57;2.80;;;15.80;99.90;;;;;;5008846;28;20030;-82
2023/10/10 05:55:38;;;;;;;2.88;2.65;;;15.80;99.90;;;;;;4999721;28;20550;-82
2023/10/10 05:58:05;;;;;;;2.85;2.30;;;15.80;99.90;;;;;;5011945;28;20101;-82
2023/10/10 06:00:37;;;;;;;2.92;2.72;;;15.70;99.90;;;;;;4999768;28;20026;-82
2023/10/10 06:03:05;;;;;;;2.85;2.65;;;15.70;99.90;;;;;;5011086;28;20022;-82
2023/10/10 06:05:34;;;;;;;3.55;3.35;;;15.60;99.90;;;;;;5012467;28;20057;-82
2023/10/10 06:08:01;;;;;;;2.60;2.40;;;15.60;99.90;;;;;;5015118;28;20021;-82
2023/10/10 06:10:31;;;;;;;3.65;2.67;;;15.60;99.90;;;;;;5013651;28;20025;-81
2023/10/10 06:12:58;;;;;;;2.10;2.00;;;15.70;99.90;;;;;;5009434;28;20083;-82
2023/10/10 06:15:24;;;;;;;3.03;2.38;;;15.70;99.90;;;;;;5010088;28;20041;-82
2023/10/10 06:17:54;;;;;;;1.60;1.60;;;15.70;99.90;;;;;;5011432;28;20434;-82
2023/10/10 06:20:23;;;;;;;7.70;3.22;;;15.70;99.90;;;;;;5014660;28;20228;-82
2023/10/10 06:22:49;;;;;;;2.53;2.33;;;15.60;99.90;;;;;;5027970;28;20060;-81
2023/10/10 06:25:18;;;;;;;2.28;2.08;;;15.60;99.90;;;;;;5023404;28;20034;-82
2023/10/10 06:27:54;;;;;;;2.42;2.22;;;15.70;99.90;;;;;;5001533;28;20077;-81
2023/10/10 06:30:21;;;;;;;4.22;2.83;;;15.60;99.90;;;;;;5018171;28;20025;-82
2023/10/10 06:32:47;;;;;;;2.47;2.38;;;15.60;99.90;;;;;;5010684;28;20026;-81
2023/10/10 06:37:45;;;;;;;1.90;1.80;;;15.70;99.90;;;;;;5010431;28;20033;-81
2023/10/10 06:40:14;;;;;;;2.95;2.65;;;15.60;99.90;;;;;;5007980;28;20025;-81
2023/10/10 06:42:47;;;;;;;3.03;2.60;;;15.60;99.90;;;;;;5009358;28;20087;-82
2023/10/10 06:45:21;;;;;;;1.92;1.83;;;15.60;99.90;;;;;;4998965;28;20041;-81
2023/10/10 06:47:50;;;;;;;1.90;1.80;;;15.50;99.90;;;;;;4994190;28;20029;-82
2023/10/10 06:50:21;;;;;;;2.70;2.60;;;15.50;99.90;;;;;;4990535;28;20445;-82
2023/10/10 06:52:52;;;;;;;3.47;2.00;;;15.60;99.90;;;;;;4994523;28;20105;-80
2023/10/10 06:55:23;;;;;;;1.83;1.75;;;15.60;99.90;;;;;;5007325;28;20044;-80
2023/10/10 06:58:01;;;;;;;2.28;2.08;;;15.70;99.90;;;;;;5009158;28;20034;-79
2023/10/10 07:00:40;;;;;;;2.45;2.35;;;15.70;99.90;;;;;;5008349;28;20432;-80
2023/10/10 07:03:06;;;;;;;3.17;2.75;;;15.70;99.90;;;;;;5008518;28;20030;-79
2023/10/10 07:05:33;;;;;;;1.00;1.00;;;15.60;99.90;;;;;;5014493;28;20029;-80
2023/10/10 07:08:12;;;;;;;2.80;2.42;;;15.70;99.90;;;;;;5014085;28;20021;-80
2023/10/10 07:10:42;;;;;;;1.60;1.33;;;15.90;99.90;;;;;;5001744;28;20888;-79
2023/10/10 07:13:13;;;;;;;2.45;2.35;;;15.90;99.90;;;;;;5014808;28;20071;-79
2023/10/10 07:15:42;;;;;;;2.60;2.38;;;16.10;99.90;;;;;;4995835;28;20500;-78
2023/10/10 07:18:14;;;;;;;2.97;2.55;;;16.20;99.90;;;;;;5010983;28;20764;-78
2023/10/10 07:23:37;;;;;;;2.33;2.03;;;16.40;99.90;;;;;;5014532;28;20879;-78
2023/10/10 07:26:07;;;;;;;2.63;2.35;;;16.40;99.90;;;;;;5013066;28;20068;-77
2023/10/10 07:28:47;;;;;;;4.10;2.05;;;16.30;99.90;;;;;;5002125;28;20096;-80
2023/10/10 07:31:18;;;;;;;3.15;1.48;;;16.30;99.90;;;;;;4996991;28;20041;-80
2023/10/10 07:33:54;;;;;;;2.47;2.13;;;16.30;99.90;;;;;;4993192;28;20164;-80
2023/10/10 07:36:25;;;;;;;4.95;2.40;;;16.30;99.90;;;;;;5002911;28;20033;-79
2023/10/10 07:38:54;;;;;;;6.63;2.47;;;16.50;99.90;;;;;;5013316;28;20029;-80
2023/10/10 07:41:24;;;;;;;2.22;2.03;;;16.60;99.90;;;;;;5001836;28;20532;-80
2023/10/10 07:43:52;;;;;;;2.65;2.15;;;16.60;99.90;;;;;;5016594;28;20308;-80
2023/10/10 07:46:22;;;;;;;2.88;1.67;;;16.70;99.90;;;;;;5012856;28;20031;-80
2023/10/10 07:48:53;;;;;;;1.40;1.30;;;16.80;99.90;;;;;;5015252;28;20033;-80
2023/10/10 07:51:28;;;;;;;1.55;1.45;;;16.80;99.90;;;;;;5012202;28;20128;-80
2023/10/10 07:54:02;;;;;;;2.33;2.22;;;16.90;99.90;;;;;;5013429;28;21456;-80
2023/10/10 07:56:32;;;;;;;1.25;1.25;;;16.90;99.90;;;;;;5011607;28;20461;-80
2023/10/10 07:58:58;;;;;;;1.00;1.00;;;16.90;99.90;;;;;;5014091;28;20036;-80
2023/10/10 08:01:23;;;;;;;1.45;1.35;;;17.10;99.90;;;;;;5011678;28;20393;-80
2023/10/10 08:03:52;;;;;;;2.15;1.92;;;17.10;99.90;;;;;;5011236;28;20248;-80
2023/10/10 08:06:25;;;;;;;1.63;1.55;;;17.30;99.90;;;;;;5147414;22;20110;-79
2023/10/10 08:09:11;;;;;;;1.73;1.63;;;17.30;99.90;;;;;;5020573;28;20098;-79
2023/10/10 08:11:37;;;;;;;2.38;2.17;;;17.40;99.90;;;;;;5013571;28;20519;-79
2023/10/10 08:14:07;;;;;;;2.17;2.08;;;17.50;99.90;;;;;;5036154;28;20017;-79
2023/10/10 08:16:39;;;;;;;2.10;1.80;;;17.50;99.90;;;;;;5027726;28;20496;-78
2023/10/10 08:19:06;;;;;;;0.82;0.82;;;17.50;99.90;;;;;;5034753;28;20087;-79
2023/10/10 08:21:53;;;;;;;1.10;1.08;;;17.60;99.90;;;;;;5021107;28;20057;-78
2023/10/10 08:24:19;;;;;;;1.30;1.20;;;17.80;99.90;;;;;;5030925;28;20036;-79
2023/10/10 08:26:45;;;;;;;2.03;1.83;;;17.90;99.90;;;;;;5032916;28;20025;-79
2023/10/10 08:29:12;;;;;;;1.38;1.33;;;17.90;99.90;;;;;;5029763;28;20064;-79
2023/10/10 08:31:42;;;;;;;1.50;1.38;;;18.00;99.90;;;;;;5032394;28;20029;-79
2023/10/10 08:34:08;;;;;;;0.80;0.80;;;18.10;99.90;;;;;;5036580;28;20029;-79
2023/10/10 08:36:35;;;;;;;0.98;0.98;;;18.10;99.90;;;;;;5032036;28;20056;-79
2023/10/10 08:41:43;;;;;;;1.38;1.27;;;18.30;99.90;;;;;;5034221;28;20101;-79
2023/10/10 08:44:10;;;;;;;2.67;2.47;;;18.30;99.90;;;;;;5032870;28;20025;-78
2023/10/10 08:46:43;;;;;;;1.40;1.33;;;18.30;99.90;;;;;;5032700;28;20113;-79
2023/10/10 08:49:09;;;;;;;2.03;1.92;;;18.40;99.90;;;;;;5037259;28;20026;-79
2023/10/10 08:51:35;;;;;;;3.13;2.42;;;18.50;99.90;;;;;;5030703;28;20038;-79
2023/10/10 08:54:09;;;;;;;2.05;1.85;;;18.50;99.90;;;;;;5032010;28;20290;-79
2023/10/10 08:56:37;;;;;;;1.77;1.67;;;18.50;99.90;;;;;;5021420;28;20021;-78
2023/10/10 08:59:08;;;;;;;0.75;0.75;;;18.60;99.90;;;;;;5019649;28;20056;-79
2023/10/10 09:01:35;;;;;;;1.67;1.58;;;18.70;99.90;;;;;;5028002;28;20033;-78
2023/10/10 09:04:03;;;;;;;2.05;1.95;;;18.90;99.90;;;;;;5033980;28;20025;-79
2023/10/10 09:06:45;;;;;;;2.45;2.25;;;19.00;99.90;;;;;;5028427;28;20104;-79
2023/10/10 09:11:56;;;;;;;4.78;2.35;;;19.30;99.90;;;;;;5030676;28;20052;-82
2023/10/10 09:14:40;;;;;;;1.90;1.80;;;19.50;99.90;;;;;;5030480;28;20127;-82
2023/10/10 09:17:28;;;;;;;1.70;1.63;;;19.30;99.90;;;;;;5035133;28;20030;-80
2023/10/10 09:19:54;;;;;;;4.53;2.88;;;19.40;99.90;;;;;;5034010;28;20128;-80
2023/10/10 09:22:34;;;;;;;1.92;1.70;;;19.50;99.90;;;;;;5033435;28;20033;-80
2023/10/10 09:25:18;;;;;;;1.48;1.48;;;19.70;99.90;;;;;;5035356;28;20094;-80
2023/10/10 09:28:10;;;;;;;2.17;2.00;;;19.80;99.90;;;;;;5027954;28;20165;-79
2023/10/10 09:30:49;;;;;;;1.50;1.50;;;20.00;99.90;;;;;;5013944;28;20040;-80
2023/10/10 09:33:23;;;;;;;3.92;2.08;;;20.20;99.90;;;;;;5034773;28;20029;-82
2023/10/10 09:39:09;;;;;;;1.13;1.13;;;20.10;99.90;;;;;;5085045;27;20102;-80
2023/10/10 09:42:00;;;;;;;1.38;1.35;;;20.20;99.90;;;;;;5075525;28;20035;-79
2023/10/10 09:49:51;;;;;;;2.00;1.90;;;20.40;99.90;;;;;;5081743;28;20020;-79
2023/10/10 09:57:42;;;;;;;2.13;2.00;;;20.20;99.90;;;;;;5083307;28;20043;-79
2023/10/10 10:00:15;;;;;;;2.58;1.92;;;20.40;99.90;;;;;;5085171;28;20028;-79
2023/10/10 10:02:49;;;;;;;1.88;1.77;;;20.40;99.90;;;;;;5082812;28;20506;-80
2023/10/10 10:05:19;;;;;;;0.80;0.80;;;20.60;99.90;;;;;;5087528;28;20074;-80
2023/10/10 10:07:56;;;;;;;1.75;1.65;;;20.80;99.90;;;;;;5084721;28;20032;-81
2023/10/10 10:10:52;;;;;;;1.75;1.38;;;20.80;99.90;;;;;;5103121;28;20479;-81
2023/10/10 10:13:21;;;;;;;1.30;1.30;;;20.70;99.90;;;;;;5090903;28;20030;-81
2023/10/10 10:16:19;;;;;;;1.52;1.42;;;20.80;99.90;;;;;;5099414;28;20056;-80
2023/10/10 10:18:47;;;;;;;1.30;1.27;;;20.80;99.90;;;;;;5091490;28;20035;-80
2023/10/10 10:21:30;;;;;;;2.15;1.85;;;20.90;99.90;;;;;;5087574;28;20097;-80
2023/10/10 10:24:15;;;;;;;1.80;1.70;;;20.70;99.90;;;;;;5086602;28;20475;-79
2023/10/10 10:26:42;;;;;;;1.33;1.33;;;20.80;99.90;;;;;;5085429;28;20051;-78
2023/10/10 10:29:16;;;;;;;2.85;2.17;;;20.90;99.90;;;;;;5085411;28;20593;-79
2023/10/10 10:31:50;;;;;;;1.95;1.67;;;21.10;99.90;;;;;;5085133;28;20020;-79
2023/10/10 10:34:31;;;;;;;1.25;1.15;;;21.20;99.90;;;;;;5085744;28;20107;-77
2023/10/10 10:37:20;;;;;;;1.95;1.85;;;21.30;99.90;;;;;;5084671;28;20059;-81
2023/10/10 10:42:40;;;;;;;1.90;1.80;;;21.60;99.90;;;;;;5072287;28;20043;-80
2023/10/10 10:45:34;;;;;;;2.60;1.98;;;21.80;99.90;;;;;;5085438;28;20028;-80
2023/10/10 10:48:05;;;;;;;2.53;2.33;;;21.80;99.90;;;;;;5085221;28;20439;-81
2023/10/10 10:50:42;;;;;;;4.30;1.83;;;21.90;99.90;;;;;;5063279;28;20118;-81
2023/10/10 11:01:28;;;;;;;1.85;1.75;;;22.30;99.90;;;;;;5075786;28;20099;-80
2023/10/10 11:03:55;;;;;;;5.38;2.72;;;22.40;99.90;;;;;;5085339;28;20024;-80
2023/10/10 11:06:24;;;;;;;2.78;2.58;;;22.40;99.90;;;;;;5068572;28;20819;-80
2023/10/10 11:11:36;;;;;;;3.28;2.95;;;22.70;99.90;;;;;;5070768;28;20012;-81
2023/10/10 11:14:10;;;;;;;2.70;2.35;;;22.80;99.90;;;;;;5069606;28;20652;-81
2023/10/10 11:16:45;;;;;;;2.65;2.45;;;22.80;99.50;;;;;;5049855;28;20062;-81
2023/10/10 11:19:58;;;;;;;2.42;2.22;;;22.90;99.30;;;;;;5067525;28;20042;-81
2023/10/10 11:22:05;;;;;;;1.70;1.60;;;23.00;99.50;;;;;;5058344;28;20025;-81
2023/10/10 11:24:34;;;;;;;2.38;2.05;;;23.20;99.70;;;;;;5070661;28;20024;-81
2023/10/10 11:29:48;;;;;;;2.05;1.95;;;23.30;98.50;;;;;;5070817;28;20032;-80
2023/10/10 11:32:24;;;;;;;2.83;1.98;;;23.50;98.50;;;;;;5065612;28;20028;-81
2023/10/10 11:34:52;;;;;;;2.97;2.42;;;23.60;98.00;;;;;;5068075;28;20038;-80
2023/10/10 11:37:23;;;;;;;2.30;2.10;;;23.60;98.60;;;;;;5063272;28;20581;-81
2023/10/10 11:40:19;;;;;;;2.08;1.90;;;23.60;98.50;;;;;;5070823;28;20027;-81
2023/10/10 11:42:39;;;;;;;3.58;2.80;;;23.80;98.00;;;;;;5068492;28;20258;-81
2023/10/10 11:45:06;;;;;;;2.42;2.20;;;23.90;96.10;;;;;;5070781;28;20059;-80
2023/10/10 11:47:42;;;;;;;2.17;1.85;;;23.90;96.10;;;;;;5067352;28;20028;-81
2023/10/10 11:50:11;;;;;;;2.63;2.33;;;24.20;97.30;;;;;;5073669;28;20032;-80
2023/10/10 11:52:56;;;;;;;3.70;3.05;;;24.30;96.30;;;;;;5066104;28;20028;-81
2023/10/10 11:55:22;;;;;;;2.78;2.58;;;24.50;95.70;;;;;;5071431;28;20035;-81
2023/10/10 11:57:55;;;;;;;3.33;3.13;;;24.60;95.00;;;;;;5069142;28;20114;-79
2023/10/10 12:00:29;;;;;;;;;;;24.50;93.60;;;;;;5061815;28;20056;-80
2023/10/10 12:02:57;;;;;;;6.65;3.30;;;24.70;94.60;;;;;;5065609;28;19931;-82
2023/10/10 12:07:58;;;;;;;5.43;2.22;;;24.90;93.10;;;;;;5066892;28;20511;-82
2023/10/10 12:10:39;;;;;;;2.17;2.08;;;24.60;92.30;;;;;;5062968;28;20034;-83
2023/10/10 12:13:09;;;;;;;3.38;2.22;;;24.80;93.70;;;;;;5065106;28;20616;-81
2023/10/10 12:15:40;;;;;;;2.25;2.15;;;24.70;92.40;;;;;;5067425;28;20371;-81
2023/10/10 12:18:09;;;;;;;3.03;2.47;;;24.60;93.40;;;;;;5062666;28;20365;-79
2023/10/10 12:20:36;;;;;;;2.28;2.15;;;24.80;93.30;;;;;;5066487;28;20027;-78
2023/10/10 12:23:03;;;;;;;2.75;1.83;;;24.90;91.80;;;;;;5064443;28;20138;-80
2023/10/10 12:25:30;;;;;;;2.47;2.38;;;25.00;92.40;;;;;;5063615;28;20115;-80
2023/10/10 12:28:00;;;;;;;2.42;2.22;;;25.10;91.10;;;;;;5055779;28;21105;-81
2023/10/10 12:30:26;;;;;;;2.80;2.60;;;24.90;91.40;;;;;;5068351;28;20089;-81
2023/10/10 12:32:52;;;;;;;2.63;2.42;;;24.70;91.50;;;;;;5067383;28;20024;-78
2023/10/10 12:35:23;;;;;;;3.17;2.20;;;24.70;92.50;;;;;;5067647;28;20016;-79
2023/10/10 12:37:49;;;;;;;2.55;2.35;;;25.00;91.30;;;;;;5061697;28;20040;-79
2023/10/10 12:40:15;;;;;;;3.38;2.63;;;25.20;91.10;;;;;;5062968;28;20158;-79
2023/10/10 12:42:40;;;;;;;4.70;1.95;;;25.50;91.60;;;;;;5062511;28;20025;-79
2023/10/10 12:45:07;;;;;;;2.40;2.20;;;25.60;90.40;;;;;;5064360;28;20029;-78
2023/10/10 12:47:33;;;;;;;4.20;2.80;;;25.50;88.80;;;;;;5059743;28;20335;-80
2023/10/10 12:50:12;;;;;;;2.28;2.10;;;25.70;88.70;;;;;;5062357;28;20009;-79
2023/10/10 12:52:45;;;;;;;2.70;2.45;;;25.90;87.60;;;;;;5059864;28;20081;-79
2023/10/10 12:55:11;;;;;;;2.28;2.13;;;25.70;86.90;;;;;;5065428;28;20024;-79
2023/10/10 12:57:37;;;;;;;3.05;2.70;;;25.80;88.60;;;;;;5060055;28;20044;-79
2023/10/10 13:02:49;;;;;;;2.78;1.70;;;25.80;87.40;;;;;;5066396;28;20078;-80
2023/10/10 13:05:16;;;;;;;2.55;2.38;;;25.60;88.60;;;;;;5048521;28;20369;-79
2023/10/10 13:07:45;;;;;;;2.78;2.47;;;25.50;89.80;;;;;;5073831;28;20370;-78
2023/10/10 13:10:13;;;;;;;2.88;2.30;;;25.60;88.70;;;;;;5074660;28;20040;-80
2023/10/10 13:12:45;;;;;;;1.85;1.75;;;25.80;89.00;;;;;;5074007;28;20012;-79
2023/10/10 13:15:29;;;;;;;;;;;26.00;87.80;;;;;;5067836;28;20114;-79
2023/10/10 13:20:43;;;;;;;2.42;2.22;;;25.90;86.10;;;;;;5060491;28;20382;-79
2023/10/10 13:23:09;;;;;;;2.28;2.08;;;26.00;88.00;;;;;;5060028;28;20040;-79
2023/10/10 13:25:37;;;;;;;2.70;2.35;;;26.40;85.80;;;;;;5063389;28;20028;-79
2023/10/10 13:28:09;;;;;;;4.93;3.03;;;26.40;84.40;;;;;;5061431;28;20060;-79
2023/10/10 13:30:39;;;;;;;3.13;2.33;;;26.30;84.80;;;;;;5062578;28;20033;-79
2023/10/10 13:33:06;;;;;;;2.40;2.30;;;26.20;85.40;;;;;;5062169;28;20484;-79
2023/10/10 13:35:36;;;;;;;3.88;2.22;;;26.30;85.60;;;;;;5074821;28;20047;-78
2023/10/10 13:38:06;;;;;;;3.85;2.95;;;25.90;85.00;;;;;;5066117;28;20040;-78
2023/10/10 13:40:45;;;;;;;2.53;2.42;;;25.80;87.30;;;;;;5068564;28;20016;-79
2023/10/10 13:43:16;;;;;;;2.40;2.20;;;25.70;86.50;;;;;;5074401;28;20013;-79
2023/10/10 13:45:47;;;;;;;2.85;2.17;;;25.80;86.70;;;;;;5059816;28;20111;-79
2023/10/10 13:48:13;;;;;;;2.38;2.17;;;26.10;86.60;;;;;;5079864;28;20024;-80
2023/10/10 13:50:44;;;;;;;3.25;1.73;;;26.40;85.80;;;;;;5065579;28;20447;-79
2023/10/10 13:53:14;;;;;;;3.28;2.10;;;26.60;85.70;;;;;;5064643;28;20028;-79
2023/10/10 13:55:42;;;;;;;2.40;1.98;;;26.90;83.00;;;;;;5067516;28;20488;-79
2023/10/10 13:58:16;;;;;;;2.58;2.38;;;26.90;81.50;;;;;;5067718;28;20098;-81
2023/10/10 14:00:43;;;;;;;2.55;2.35;;;27.00;82.00;;;;;;5064112;28;20040;-80
2023/10/10 14:03:14;;;;;;;2.65;2.45;;;27.00;80.40;;;;;;5063506;28;20028;-81
2023/10/10 14:05:41;;;;;;;2.35;2.15;;;26.80;80.10;;;;;;5063343;28;20024;-81
2023/10/10 14:08:09;;;;;;;4.88;2.53;;;26.90;79.30;;;;;;5063330;28;20060;-81
2023/10/10 14:10:42;;;;;;;3.00;2.53;;;27.20;78.70;;;;;;5067878;28;20103;-82
2023/10/10 14:13:19;;;;;;;2.78;2.58;;;26.80;77.90;;;;;;5062274;28;20036;-81
2023/10/10 14:15:54;;;;;;;2.13;2.00;;;26.70;79.10;;;;;;5062701;28;20290;-81
2023/10/10 14:18:45;;;;;;;2.42;2.25;;;26.60;79.40;;;;;;5064014;28;20514;-82
2023/10/10 14:21:12;;;;;;;1.90;1.77;;;26.70;79.50;;;;;;5061803;28;20844;-82
2023/10/10 14:23:40;;;;;;;4.90;2.13;;;26.80;79.20;;;;;;5064746;28;20368;-80
2023/10/10 14:26:12;;;;;;;3.13;2.83;;;27.20;79.30;;;;;;5075252;28;20515;-81
2023/10/10 14:28:49;;;;;;;3.15;2.53;;;27.30;79.90;;;;;;5065040;28;20051;-81
2023/10/10 14:31:14;;;;;;;1.92;1.83;;;27.20;78.80;;;;;;5070914;28;20032;-80
2023/10/10 14:33:40;;;;;;;2.33;2.22;;;27.10;79.60;;;;;;5066411;28;20480;-81
2023/10/10 14:36:11;;;;;;;4.50;2.50;;;26.90;80.80;;;;;;5062948;28;20054;-81
2023/10/10 14:38:44;;;;;;;3.15;2.80;;;26.80;80.40;;;;;;5063800;28;20535;-81
2023/10/10 14:41:17;;;;;;;2.58;2.08;;;26.70;80.40;;;;;;5071357;28;20047;-81
2023/10/10 14:43:47;;;;;;;3.78;2.58;;;27.40;80.10;;;;;;5061265;28;20115;-81
2023/10/10 14:46:21;;;;;;;2.92;2.72;;;28.00;78.00;;;;;;5065575;28;20475;-81
2023/10/10 14:48:50;;;;;;;2.60;2.40;;;28.50;76.70;;;;;;5068595;28;20121;-80
2023/10/10 14:51:17;;;;;;;2.35;2.15;;;29.00;75.90;;;;;;5064972;28;20033;-80
2023/10/10 14:53:50;;;;;;;13.20;2.60;;;29.40;72.30;;;;;;5051306;28;20039;-80
2023/10/10 14:56:19;;;;;;;2.72;2.50;;;29.40;72.60;;;;;;5064103;28;20040;-80
2023/10/10 14:58:48;;;;;;;3.50;3.20;;;29.60;71.10;;;;;;5066050;28;20040;-80
2023/10/10 15:01:17;;;;;;;3.13;2.92;;;29.50;71.10;;;;;;5063643;28;20024;-80
2023/10/10 15:03:48;;;;;;;2.60;2.40;;;29.90;69.40;;;;;;5067181;28;20032;-81
2023/10/10 15:06:16;;;;;;;2.63;2.42;;;29.80;69.50;;;;;;5065936;28;20032;-81
2023/10/10 15:08:47;;;;;;;6.10;2.85;;;29.40;69.50;;;;;;5072328;28;20054;-81
2023/10/10 15:11:12;;;;;;;2.30;2.10;;;29.00;70.50;;;;;;5065644;28;20095;-81
2023/10/10 15:13:42;;;;;;;3.45;3.15;;;28.80;71.40;;;;;;5074589;28;20484;-80
2023/10/10 15:16:10;;;;;;;3.10;2.78;;;28.90;71.90;;;;;;5072449;28;20024;-81
2023/10/10 15:18:38;;;;;;;4.75;2.88;;;29.00;71.70;;;;;;5066995;28;20131;-81
2023/10/10 15:21:04;;;;;;;3.13;2.22;;;29.10;71.80;;;;;;5073708;28;20063;-81
2023/10/10 15:23:29;;;;;;;3.00;2.55;;;29.20;70.90;;;;;;5080344;28;20472;-81
2023/10/10 15:25:56;;;;;;;3.83;3.28;;;29.30;71.30;;;;;;5078544;28;20541;-81
2023/10/10 15:28:25;;;;;;;2.80;2.58;;;29.70;68.20;;;;;;5073142;28;20642;-81
2023/10/10 15:30:51;;;;;;;3.13;2.88;;;29.40;69.80;;;;;;5077337;28;20032;-81
2023/10/10 15:33:22;;;;;;;5.03;3.42;;;29.50;68.90;;;;;;5070963;28;20070;-79
2023/10/10 15:35:54;;;;;;;2.80;2.40;;;28.80;70.40;;;;;;5073031;28;20031;-81
2023/10/10 15:38:23;;;;;;;5.55;3.25;;;28.30;72.90;;;;;;5072952;28;20082;-81
2023/10/10 15:40:52;;;;;;;2.85;2.65;;;27.70;74.60;;;;;;5054888;28;20024;-81
2023/10/10 15:43:20;;;;;;;14.93;3.05;;;27.30;75.90;;;;;;5071114;28;20020;-81
2023/10/10 15:45:47;;;;;;;3.00;2.75;;;26.80;77.10;;;;;;5068441;28;20028;-81
2023/10/10 15:48:21;;;;;;;3.17;2.92;;;26.40;78.80;;;;;;5059310;28;20029;-79
2023/10/10 15:50:51;;;;;;;3.38;2.65;;;26.40;79.00;;;;;;5072643;28;20115;-78
2023/10/10 15:53:20;;;;;;;3.13;2.22;;;26.20;80.10;;;;;;5053867;28;20115;-78
2023/10/10 15:56:06;;;;;;;2.95;1.85;;;25.90;81.10;;;;;;5071050;28;20107;-80
2023/10/10 15:58:36;;;;;;;1.90;1.67;;;25.70;82.70;;;;;;5070406;28;20033;-79
2023/10/10 16:01:11;;;;;;;4.22;2.30;;;25.60;83.30;;;;;;5055747;28;20036;-79
2023/10/10 16:03:38;;;;;;;4.53;3.55;;;25.20;85.00;;;;;;5070771;28;20035;-79
2023/10/10 16:06:08;;;;;;;1.80;1.70;;;25.00;86.50;;;;;;5068986;28;20115;-79
2023/10/10 16:08:37;;;;;;;2.88;2.63;;;24.90;87.40;;;;;;5063861;28;20029;-80
2023/10/10 16:11:04;;;;;;;2.35;1.90;;;24.90;87.80;;;;;;5070928;28;20537;-79
2023/10/10 16:13:35;;;;;;;2.65;1.80;;;24.70;88.80;;;;;;5068567;28;20718;-79
2023/10/10 16:16:05;;;;;;;8.35;2.33;;;24.90;89.00;;;;;;5070426;28;20537;-79
2023/10/10 16:18:33;;;;;;;3.15;2.30;;;24.90;89.40;;;;;;5070301;28;20044;-79